sensor_id;sensor_type;location;lat;lon;timestamp;pressure;altitude;pressure_sealevel;temperature;humidity
37690;BME280;23527;48.150;11.610;2022-08-01T00:01:22;95725.03;;;29.34;32.44
37690;BME280;23527;48.150;11.610;2022-08-01T00:04:23;95723.13;;;29.34;33.58
37690;BME280;23527;48.150;11.610;2022-08-01T00:07:23;95727.69;;;29.34;33.38
37690;BME280;23527;48.150;11.610;2022-08-01T00:10:23;95728.78;;;29.33;32.97
37690;BME280;23527;48.150;11.610;2022-08-01T00:13:24;95727.97;;;29.32;33.52
37690;BME280;23527;48.150;11.610;2022-08-01T00:16:24;95737.91;;;29.32;33.33
37690;BME280;23527;48.150;11.610;2022-08-01T00:19:24;95729.34;;;29.30;33.02
37690;BME280;23527;48.150;11.610;2022-08-01T00:22:24;95729.66;;;29.28;33.89
37690;BME280;23527;48.150;11.610;2022-08-01T00:25:25;95731.53;;;29.28;34.02
37690;BME280;23527;48.150;11.610;2022-08-01T00:28:25;95728.63;;;29.24;33.20
37690;BME280;23527;48.150;11.610;2022-08-01T00:31:25;95732.63;;;29.27;33.43
37690;BME280;23527;48.150;11.610;2022-08-01T00:34:25;95731.25;;;29.29;33.42
37690;BME280;23527;48.150;11.610;2022-08-01T00:37:26;95734.22;;;29.28;32.84
37690;BME280;23527;48.150;11.610;2022-08-01T00:40:26;95731.81;;;29.26;32.98
37690;BME280;23527;48.150;11.610;2022-08-01T00:43:26;95725.66;;;29.26;32.05
37690;BME280;23527;48.150;11.610;2022-08-01T00:46:26;95741.75;;;29.26;32.35
37690;BME280;23527;48.150;11.610;2022-08-01T00:49:27;95730.75;;;29.27;32.67
37690;BME280;23527;48.150;11.610;2022-08-01T00:52:27;95733.16;;;29.29;32.06
37690;BME280;23527;48.150;11.610;2022-08-01T00:55:27;95727.78;;;29.29;32.19
37690;BME280;23527;48.150;11.610;2022-08-01T00:58:28;95737.47;;;29.25;31.95
37690;BME280;23527;48.150;11.610;2022-08-01T01:01:31;95735.41;;;29.17;31.84
37690;BME280;23527;48.150;11.610;2022-08-01T01:04:31;95723.56;;;29.18;32.87
37690;BME280;23527;48.150;11.610;2022-08-01T01:07:40;95731.63;;;29.18;32.14
37690;BME280;23527;48.150;11.610;2022-08-01T01:13:46;95737.50;;;29.20;32.39
37690;BME280;23527;48.150;11.610;2022-08-01T01:16:49;95740.56;;;29.13;31.81
37690;BME280;23527;48.150;11.610;2022-08-01T01:19:50;95733.31;;;29.14;32.23
37690;BME280;23527;48.150;11.610;2022-08-01T01:32:04;95743.56;;;29.06;31.72
37690;BME280;23527;48.150;11.610;2022-08-01T01:35:06;95743.03;;;29.04;32.28
37690;BME280;23527;48.150;11.610;2022-08-01T01:38:09;95746.50;;;29.05;31.69
37690;BME280;23527;48.150;11.610;2022-08-01T01:41:11;95748.69;;;29.03;32.17
37690;BME280;23527;48.150;11.610;2022-08-01T01:44:12;95739.88;;;28.97;32.30
37690;BME280;23527;48.150;11.610;2022-08-01T01:47:13;95739.38;;;28.95;31.83
37690;BME280;23527;48.150;11.610;2022-08-01T01:50:14;95742.34;;;28.94;32.30
37690;BME280;23527;48.150;11.610;2022-08-01T01:53:16;95747.41;;;28.95;32.21
37690;BME280;23527;48.150;11.610;2022-08-01T01:56:17;95748.78;;;28.93;32.27
37690;BME280;23527;48.150;11.610;2022-08-01T01:59:19;95746.09;;;28.93;32.50
37690;BME280;23527;48.150;11.610;2022-08-01T02:02:21;95750.66;;;28.92;32.05
37690;BME280;23527;48.150;11.610;2022-08-01T02:05:22;95747.97;;;28.92;32.36
37690;BME280;23527;48.150;11.610;2022-08-01T02:08:24;95751.47;;;28.93;31.64
37690;BME280;23527;48.150;11.610;2022-08-01T02:11:25;95746.91;;;28.93;32.59
37690;BME280;23527;48.150;11.610;2022-08-01T02:14:25;95750.09;;;28.95;32.08
37690;BME280;23527;48.150;11.610;2022-08-01T02:17:27;95748.22;;;28.96;32.09
37690;BME280;23527;48.150;11.610;2022-08-01T02:20:29;95757.88;;;28.97;31.98
37690;BME280;23527;48.150;11.610;2022-08-01T02:23:31;95765.41;;;28.95;30.67
37690;BME280;23527;48.150;11.610;2022-08-01T02:26:32;95763.22;;;28.97;31.44
37690;BME280;23527;48.150;11.610;2022-08-01T02:29:36;95751.19;;;28.94;31.97
37690;BME280;23527;48.150;11.610;2022-08-01T02:32:46;95754.38;;;28.96;31.17
37690;BME280;23527;48.150;11.610;2022-08-01T02:35:48;95758.44;;;28.94;31.69
37690;BME280;23527;48.150;11.610;2022-08-01T02:38:49;95752.53;;;28.92;31.72
37690;BME280;23527;48.150;11.610;2022-08-01T02:41:50;95753.63;;;28.91;31.37
37690;BME280;23527;48.150;11.610;2022-08-01T02:44:53;95753.63;;;28.91;31.48
37690;BME280;23527;48.150;11.610;2022-08-01T02:47:57;95761.66;;;28.91;31.91
37690;BME280;23527;48.150;11.610;2022-08-01T02:50:59;95759.28;;;28.89;31.22
37690;BME280;23527;48.150;11.610;2022-08-01T02:54:01;95765.72;;;28.88;31.35
37690;BME280;23527;48.150;11.610;2022-08-01T02:57:03;95764.66;;;28.89;31.71
37690;BME280;23527;48.150;11.610;2022-08-01T03:00:04;95772.19;;;28.87;30.74
37690;BME280;23527;48.150;11.610;2022-08-01T03:03:05;95766.56;;;28.84;31.53
37690;BME280;23527;48.150;11.610;2022-08-01T03:06:06;95766.03;;;28.82;31.29
37690;BME280;23527;48.150;11.610;2022-08-01T03:09:07;95769.25;;;28.84;31.59
37690;BME280;23527;48.150;11.610;2022-08-01T03:12:13;95766.31;;;28.80;31.57
37690;BME280;23527;48.150;11.610;2022-08-01T03:15:14;95774.66;;;28.79;32.15
37690;BME280;23527;48.150;11.610;2022-08-01T03:18:15;95777.88;;;28.76;31.72
37690;BME280;23527;48.150;11.610;2022-08-01T03:21:17;95772.78;;;28.74;31.29
37690;BME280;23527;48.150;11.610;2022-08-01T03:24:19;95773.63;;;28.69;31.10
37690;BME280;23527;48.150;11.610;2022-08-01T03:27:22;95782.22;;;28.66;31.07
37690;BME280;23527;48.150;11.610;2022-08-01T03:30:23;95780.63;;;28.65;31.42
37690;BME280;23527;48.150;11.610;2022-08-01T03:33:25;95774.44;;;28.65;31.37
37690;BME280;23527;48.150;11.610;2022-08-01T03:36:26;95776.91;;;28.61;31.23
37690;BME280;23527;48.150;11.610;2022-08-01T03:39:29;95776.09;;;28.61;31.04
37690;BME280;23527;48.150;11.610;2022-08-01T03:42:32;95781.22;;;28.57;31.31
37690;BME280;23527;48.150;11.610;2022-08-01T03:45:34;95794.09;;;28.55;31.58
37690;BME280;23527;48.150;11.610;2022-08-01T03:48:36;95790.09;;;28.53;31.73
37690;BME280;23527;48.150;11.610;2022-08-01T03:51:38;95794.97;;;28.46;30.86
37690;BME280;23527;48.150;11.610;2022-08-01T03:54:40;95794.97;;;28.46;31.54
37690;BME280;23527;48.150;11.610;2022-08-01T03:57:42;95801.16;;;28.41;31.03
37690;BME280;23527;48.150;11.610;2022-08-01T04:00:42;95804.91;;;28.40;31.60
37690;BME280;23527;48.150;11.610;2022-08-01T04:03:43;95802.25;;;28.40;31.64
37690;BME280;23527;48.150;11.610;2022-08-01T04:06:44;95809.47;;;28.40;32.73
37690;BME280;23527;48.150;11.610;2022-08-01T04:09:44;95809.47;;;28.40;32.31
37690;BME280;23527;48.150;11.610;2022-08-01T04:12:45;95808.69;;;28.39;31.49
37690;BME280;23527;48.150;11.610;2022-08-01T04:15:45;95808.94;;;28.37;31.96
37690;BME280;23527;48.150;11.610;2022-08-01T04:18:45;95816.72;;;28.39;32.62
37690;BME280;23527;48.150;11.610;2022-08-01T04:21:46;95817.84;;;28.33;32.04
37690;BME280;23527;48.150;11.610;2022-08-01T04:24:47;95816.22;;;28.32;32.18
37690;BME280;23527;48.150;11.610;2022-08-01T04:27:50;95829.38;;;28.28;32.37
37690;BME280;23527;48.150;11.610;2022-08-01T04:30:53;95826.69;;;28.28;32.59
37690;BME280;23527;48.150;11.610;2022-08-01T04:33:55;95829.09;;;28.30;32.60
37690;BME280;23527;48.150;11.610;2022-08-01T04:36:56;95838.22;;;28.29;31.92
37690;BME280;23527;48.150;11.610;2022-08-01T04:39:59;95830.19;;;28.29;32.49
37690;BME280;23527;48.150;11.610;2022-08-01T04:43:00;95828.84;;;28.31;32.38
37690;BME280;23527;48.150;11.610;2022-08-01T04:46:01;95837.13;;;28.35;32.45
37690;BME280;23527;48.150;11.610;2022-08-01T04:49:04;95839.81;;;28.35;31.83
37690;BME280;23527;48.150;11.610;2022-08-01T04:52:05;95842.22;;;28.31;31.94
37690;BME280;23527;48.150;11.610;2022-08-01T04:55:06;95845.16;;;28.35;32.35
37690;BME280;23527;48.150;11.610;2022-08-01T04:58:06;95841.09;;;28.37;32.17
37690;BME280;23527;48.150;11.610;2022-08-01T05:01:08;95838.16;;;28.39;31.95
37690;BME280;23527;48.150;11.610;2022-08-01T05:04:08;95839.50;;;28.42;31.96
37690;BME280;23527;48.150;11.610;2022-08-01T05:07:09;95836.53;;;28.43;32.13
37690;BME280;23527;48.150;11.610;2022-08-01T05:10:09;95845.13;;;28.40;31.69
37690;BME280;23527;48.150;11.610;2022-08-01T05:13:09;95847.25;;;28.43;32.24
37690;BME280;23527;48.150;11.610;2022-08-01T05:16:10;95852.34;;;28.45;31.61
37690;BME280;23527;48.150;11.610;2022-08-01T05:19:11;95844.31;;;28.45;32.12
37690;BME280;23527;48.150;11.610;2022-08-01T05:22:11;95854.22;;;28.44;32.57
37690;BME280;23527;48.150;11.610;2022-08-01T05:25:12;95849.38;;;28.46;31.89
37690;BME280;23527;48.150;11.610;2022-08-01T05:28:12;95854.19;;;28.49;32.19
37690;BME280;23527;48.150;11.610;2022-08-01T05:31:12;95855.50;;;28.52;31.43
37690;BME280;23527;48.150;11.610;2022-08-01T05:34:12;95863.25;;;28.58;32.38
37690;BME280;23527;48.150;11.610;2022-08-01T05:37:13;95866.19;;;28.62;31.43
37690;BME280;23527;48.150;11.610;2022-08-01T05:40:13;95860.50;;;28.68;31.66
37690;BME280;23527;48.150;11.610;2022-08-01T05:43:13;95870.94;;;28.75;31.93
37690;BME280;23527;48.150;11.610;2022-08-01T05:46:13;95868.22;;;28.80;30.55
37690;BME280;23527;48.150;11.610;2022-08-01T05:49:13;95874.13;;;28.82;30.89
37690;BME280;23527;48.150;11.610;2022-08-01T05:52:14;95869.75;;;28.91;30.79
37690;BME280;23527;48.150;11.610;2022-08-01T05:55:14;95867.59;;;28.98;31.33
37690;BME280;23527;48.150;11.610;2022-08-01T05:58:14;95879.59;;;29.06;30.70
37690;BME280;23527;48.150;11.610;2022-08-01T06:01:14;95876.88;;;29.11;31.24
37690;BME280;23527;48.150;11.610;2022-08-01T06:04:15;95878.72;;;29.16;30.53
37690;BME280;23527;48.150;11.610;2022-08-01T06:07:15;95875.19;;;29.20;30.47
37690;BME280;23527;48.150;11.610;2022-08-01T06:10:15;95883.47;;;29.24;30.00
37690;BME280;23527;48.150;11.610;2022-08-01T06:13:16;95882.66;;;29.28;30.38
37690;BME280;23527;48.150;11.610;2022-08-01T06:16:16;95883.91;;;29.36;30.21
37690;BME280;23527;48.150;11.610;2022-08-01T06:19:17;95881.50;;;29.39;30.29
37690;BME280;23527;48.150;11.610;2022-08-01T06:22:17;95881.97;;;29.47;30.12
37690;BME280;23527;48.150;11.610;2022-08-01T06:25:17;95877.88;;;29.54;29.80
37690;BME280;23527;48.150;11.610;2022-08-01T06:28:18;95884.47;;;29.67;30.06
37690;BME280;23527;48.150;11.610;2022-08-01T06:31:18;95882.22;;;29.74;29.81
37690;BME280;23527;48.150;11.610;2022-08-01T06:34:18;95879.22;;;29.81;29.42
37690;BME280;23527;48.150;11.610;2022-08-01T06:37:18;95892.03;;;29.89;29.09
37690;BME280;23527;48.150;11.610;2022-08-01T06:40:18;95895.47;;;29.94;29.69
37690;BME280;23527;48.150;11.610;2022-08-01T06:43:19;95894.84;;;30.02;29.78
37690;BME280;23527;48.150;11.610;2022-08-01T06:46:19;95895.81;;;30.11;29.44
37690;BME280;23527;48.150;11.610;2022-08-01T06:49:19;95900.31;;;30.21;30.14
37690;BME280;23527;48.150;11.610;2022-08-01T06:52:19;95895.88;;;30.30;29.53
37690;BME280;23527;48.150;11.610;2022-08-01T06:55:20;95890.88;;;30.42;29.26
37690;BME280;23527;48.150;11.610;2022-08-01T06:58:20;95891.53;;;30.53;29.25
37690;BME280;23527;48.150;11.610;2022-08-01T07:01:20;95886.06;;;30.63;28.60
37690;BME280;23527;48.150;11.610;2022-08-01T07:04:20;95896.47;;;30.70;28.89
37690;BME280;23527;48.150;11.610;2022-08-01T07:07:20;95886.88;;;30.82;28.78
37690;BME280;23527;48.150;11.610;2022-08-01T07:10:21;95878.34;;;30.94;28.15
37690;BME280;23527;48.150;11.610;2022-08-01T07:13:21;95881.06;;;31.13;28.91
37690;BME280;23527;48.150;11.610;2022-08-01T07:16:24;95884.50;;;31.32;28.39
37690;BME280;23527;48.150;11.610;2022-08-01T07:19:25;95887.06;;;31.42;28.30
37690;BME280;23527;48.150;11.610;2022-08-01T07:22:26;95875.50;;;31.56;28.15
37690;BME280;23527;48.150;11.610;2022-08-01T07:25:26;95878.75;;;31.71;27.91
37690;BME280;23527;48.150;11.610;2022-08-01T07:28:27;95879.84;;;31.70;27.71
37690;BME280;23527;48.150;11.610;2022-08-01T07:31:28;95880.66;;;31.84;27.85
37690;BME280;23527;48.150;11.610;2022-08-01T07:34:28;95872.69;;;32.07;28.32
37690;BME280;23527;48.150;11.610;2022-08-01T07:37:28;95875.19;;;32.17;27.57
37690;BME280;23527;48.150;11.610;2022-08-01T07:40:28;95870.09;;;32.29;27.38
37690;BME280;23527;48.150;11.610;2022-08-01T07:43:29;95868.00;;;32.40;26.73
37690;BME280;23527;48.150;11.610;2022-08-01T07:46:29;95872.50;;;32.44;26.89
37690;BME280;23527;48.150;11.610;2022-08-01T07:49:30;95867.59;;;32.46;26.47
37690;BME280;23527;48.150;11.610;2022-08-01T07:52:30;95869.38;;;32.51;26.14
37690;BME280;23527;48.150;11.610;2022-08-01T07:55:31;95861.88;;;32.62;26.33
37690;BME280;23527;48.150;11.610;2022-08-01T07:58:32;95879.47;;;32.73;26.25
37690;BME280;23527;48.150;11.610;2022-08-01T08:01:32;95881.38;;;32.72;26.82
37690;BME280;23527;48.150;11.610;2022-08-01T08:04:32;95870.03;;;32.84;27.26
37690;BME280;23527;48.150;11.610;2022-08-01T08:07:33;95879.22;;;32.83;26.54
37690;BME280;23527;48.150;11.610;2022-08-01T08:10:36;95873.94;;;32.78;26.84
37690;BME280;23527;48.150;11.610;2022-08-01T08:13:36;95876.03;;;32.81;26.04
37690;BME280;23527;48.150;11.610;2022-08-01T08:16:36;95868.72;;;32.81;26.22
37690;BME280;23527;48.150;11.610;2022-08-01T08:19:36;95874.44;;;32.80;26.44
37690;BME280;23527;48.150;11.610;2022-08-01T08:22:39;95871.44;;;32.81;26.43
37690;BME280;23527;48.150;11.610;2022-08-01T08:25:39;95872.19;;;32.96;26.90
37690;BME280;23527;48.150;11.610;2022-08-01T08:28:39;95861.44;;;33.04;26.67
37690;BME280;23527;48.150;11.610;2022-08-01T08:31:39;95861.13;;;33.06;26.61
37690;BME280;23527;48.150;11.610;2022-08-01T08:34:40;95864.53;;;33.11;25.97
37690;BME280;23527;48.150;11.610;2022-08-01T08:37:40;95869.00;;;33.16;25.83
37690;BME280;23527;48.150;11.610;2022-08-01T08:40:40;95854.22;;;33.13;26.33
37690;BME280;23527;48.150;11.610;2022-08-01T08:43:40;95858.69;;;33.18;26.32
37690;BME280;23527;48.150;11.610;2022-08-01T08:46:42;95855.19;;;33.17;26.08
37690;BME280;23527;48.150;11.610;2022-08-01T08:49:43;95857.56;;;33.19;25.73
37690;BME280;23527;48.150;11.610;2022-08-01T08:52:44;95861.78;;;33.25;27.05
37690;BME280;23527;48.150;11.610;2022-08-01T08:55:45;95856.16;;;33.21;26.81
37690;BME280;23527;48.150;11.610;2022-08-01T08:58:45;95864.09;;;33.18;26.58
37690;BME280;23527;48.150;11.610;2022-08-01T09:01:45;95869.31;;;33.14;25.70
37690;BME280;23527;48.150;11.610;2022-08-01T09:04:46;95865.53;;;33.15;26.05
37690;BME280;23527;48.150;11.610;2022-08-01T09:07:46;95856.28;;;32.94;25.79
37690;BME280;23527;48.150;11.610;2022-08-01T09:10:47;95859.53;;;32.82;25.32
37690;BME280;23527;48.150;11.610;2022-08-01T09:17:07;95859.91;;;32.89;26.84
37690;BME280;23527;48.150;11.610;2022-08-01T09:20:08;95868.13;;;32.84;26.52
37690;BME280;23527;48.150;11.610;2022-08-01T09:23:31;95852.34;;;32.78;25.90
37690;BME280;23527;48.150;11.610;2022-08-01T09:26:33;95853.63;;;32.80;26.27
37690;BME280;23527;48.150;11.610;2022-08-01T09:29:34;95862.84;;;32.79;26.14
37690;BME280;23527;48.150;11.610;2022-08-01T09:32:34;95852.53;;;32.81;26.65
37690;BME280;23527;48.150;11.610;2022-08-01T09:35:35;95858.31;;;32.88;26.46
37690;BME280;23527;48.150;11.610;2022-08-01T09:38:36;95857.84;;;32.86;26.74
37690;BME280;23527;48.150;11.610;2022-08-01T09:41:37;95852.13;;;32.88;27.56
37690;BME280;23527;48.150;11.610;2022-08-01T09:44:41;95857.84;;;32.86;26.60
37690;BME280;23527;48.150;11.610;2022-08-01T09:47:41;95846.53;;;32.84;27.42
37690;BME280;23527;48.150;11.610;2022-08-01T09:50:42;95850.03;;;32.85;26.19
37690;BME280;23527;48.150;11.610;2022-08-01T09:53:47;95848.78;;;32.91;25.98
37690;BME280;23527;48.150;11.610;2022-08-01T09:56:47;95849.09;;;32.89;25.66
37690;BME280;23527;48.150;11.610;2022-08-01T09:59:49;95847.28;;;32.99;26.76
37690;BME280;23527;48.150;11.610;2022-08-01T10:02:50;95844.63;;;33.07;27.65
37690;BME280;23527;48.150;11.610;2022-08-01T10:05:50;95847.22;;;33.12;26.03
37690;BME280;23527;48.150;11.610;2022-08-01T10:08:51;95844.06;;;33.19;26.82
37690;BME280;23527;48.150;11.610;2022-08-01T10:11:51;95835.78;;;33.29;27.03
37690;BME280;23527;48.150;11.610;2022-08-01T10:14:51;95842.63;;;33.35;25.86
37690;BME280;23527;48.150;11.610;2022-08-01T10:18:01;95840.22;;;33.34;25.01
37690;BME280;23527;48.150;11.610;2022-08-01T10:21:02;95834.53;;;33.35;26.13
37690;BME280;23527;48.150;11.610;2022-08-01T10:24:02;95835.94;;;33.33;26.08
37690;BME280;23527;48.150;11.610;2022-08-01T10:27:05;95831.53;;;33.37;25.42
37690;BME280;23527;48.150;11.610;2022-08-01T10:30:06;95828.94;;;33.32;25.51
37690;BME280;23527;48.150;11.610;2022-08-01T10:33:09;95831.94;;;33.30;27.15
37690;BME280;23527;48.150;11.610;2022-08-01T10:36:10;95827.03;;;33.32;25.56
37690;BME280;23527;48.150;11.610;2022-08-01T10:39:10;95823.03;;;33.30;25.66
37690;BME280;23527;48.150;11.610;2022-08-01T10:42:11;95822.44;;;33.33;25.72
37690;BME280;23527;48.150;11.610;2022-08-01T10:45:15;95825.19;;;33.41;25.56
37690;BME280;23527;48.150;11.610;2022-08-01T10:48:19;95817.44;;;33.48;26.77
37690;BME280;23527;48.150;11.610;2022-08-01T10:51:20;95816.06;;;33.59;25.43
37690;BME280;23527;48.150;11.610;2022-08-01T10:54:24;95813.84;;;33.61;26.04
37690;BME280;23527;48.150;11.610;2022-08-01T10:57:24;95822.75;;;33.62;25.79
37690;BME280;23527;48.150;11.610;2022-08-01T11:00:24;95806.88;;;33.69;25.33
37690;BME280;23527;48.150;11.610;2022-08-01T11:03:32;95820.47;;;33.78;25.64
37690;BME280;23527;48.150;11.610;2022-08-01T11:09:38;95808.06;;;33.77;24.53
37690;BME280;23527;48.150;11.610;2022-08-01T11:12:39;95807.53;;;33.75;25.23
37690;BME280;23527;48.150;11.610;2022-08-01T11:15:40;95795.13;;;33.74;25.55
37690;BME280;23527;48.150;11.610;2022-08-01T11:18:49;95801.56;;;33.86;25.26
37690;BME280;23527;48.150;11.610;2022-08-01T11:24:55;95793.03;;;34.02;24.51
37690;BME280;23527;48.150;11.610;2022-08-01T11:34:17;95798.00;;;34.08;24.01
37690;BME280;23527;48.150;11.610;2022-08-01T11:37:26;95798.16;;;34.20;24.37
37690;BME280;23527;48.150;11.610;2022-08-01T11:40:28;95796.41;;;34.16;23.52
37690;BME280;23527;48.150;11.610;2022-08-01T11:43:28;95790.34;;;34.10;24.39
37690;BME280;23527;48.150;11.610;2022-08-01T11:49:48;95784.22;;;34.44;23.68
37690;BME280;23527;48.150;11.610;2022-08-01T11:52:58;95791.41;;;34.49;23.16
37690;BME280;23527;48.150;11.610;2022-08-01T11:55:59;95782.78;;;34.55;22.57
37690;BME280;23527;48.150;11.610;2022-08-01T11:58:59;95774.69;;;34.81;23.67
37690;BME280;23527;48.150;11.610;2022-08-01T12:01:59;95787.72;;;34.71;22.68
37690;BME280;23527;48.150;11.610;2022-08-01T12:08:02;95774.66;;;34.73;24.08
37690;BME280;23527;48.150;11.610;2022-08-01T12:11:03;95780.25;;;34.93;23.19
37690;BME280;23527;48.150;11.610;2022-08-01T12:14:03;95774.00;;;35.10;23.02
37690;BME280;23527;48.150;11.610;2022-08-01T12:17:03;95762.50;;;35.22;22.38
37690;BME280;23527;48.150;11.610;2022-08-01T12:20:05;95762.16;;;35.41;22.52
37690;BME280;23527;48.150;11.610;2022-08-01T12:23:07;95762.97;;;35.70;22.44
37690;BME280;23527;48.150;11.610;2022-08-01T12:26:07;95761.56;;;36.02;22.17
37690;BME280;23527;48.150;11.610;2022-08-01T12:29:07;95747.72;;;36.25;20.77
37690;BME280;23527;48.150;11.610;2022-08-01T12:32:21;95748.22;;;36.48;20.25
37690;BME280;23527;48.150;11.610;2022-08-01T12:35:24;95745.34;;;36.44;20.57
37690;BME280;23527;48.150;11.610;2022-08-01T12:38:26;95742.13;;;36.71;20.91
37690;BME280;23527;48.150;11.610;2022-08-01T12:41:27;95736.19;;;36.69;19.92
37690;BME280;23527;48.150;11.610;2022-08-01T12:44:29;95742.59;;;36.73;19.01
37690;BME280;23527;48.150;11.610;2022-08-01T12:47:30;95739.44;;;36.63;20.45
37690;BME280;23527;48.150;11.610;2022-08-01T12:50:31;95737.69;;;36.46;19.96
37690;BME280;23527;48.150;11.610;2022-08-01T12:53:35;95730.97;;;36.64;19.58
37690;BME280;23527;48.150;11.610;2022-08-01T12:56:35;95725.06;;;36.83;20.40
37690;BME280;23527;48.150;11.610;2022-08-01T12:59:35;95738.22;;;36.93;19.76
37690;BME280;23527;48.150;11.610;2022-08-01T13:02:35;95728.63;;;36.96;18.83
37690;BME280;23527;48.150;11.610;2022-08-01T13:05:55;95727.31;;;36.81;18.99
37690;BME280;23527;48.150;11.610;2022-08-01T13:09:04;95720.97;;;36.56;19.45
37690;BME280;23527;48.150;11.610;2022-08-01T13:12:08;95720.41;;;36.30;19.62
37690;BME280;23527;48.150;11.610;2022-08-01T13:18:22;95732.09;;;35.63;20.72
37690;BME280;23527;48.150;11.610;2022-08-01T13:21:27;95734.13;;;35.36;20.25
37690;BME280;23527;48.150;11.610;2022-08-01T13:24:28;95733.84;;;35.12;21.13
37690;BME280;23527;48.150;11.610;2022-08-01T13:27:29;95734.09;;;34.81;21.37
37690;BME280;23527;48.150;11.610;2022-08-01T13:30:29;95757.81;;;34.58;22.42
37690;BME280;23527;48.150;11.610;2022-08-01T13:33:40;95755.88;;;34.33;24.38
37690;BME280;23527;48.150;11.610;2022-08-01T13:36:41;95755.53;;;34.09;23.20
37690;BME280;23527;48.150;11.610;2022-08-01T13:39:43;95759.28;;;33.90;22.77
37690;BME280;23527;48.150;11.610;2022-08-01T13:42:44;95748.59;;;33.85;25.85
37690;BME280;23527;48.150;11.610;2022-08-01T13:45:44;95735.75;;;33.82;26.99
37690;BME280;23527;48.150;11.610;2022-08-01T13:48:44;95742.41;;;33.76;27.10
37690;BME280;23527;48.150;11.610;2022-08-01T13:51:45;95750.91;;;33.70;25.91
37690;BME280;23527;48.150;11.610;2022-08-01T13:54:46;95745.38;;;33.66;24.61
37690;BME280;23527;48.150;11.610;2022-08-01T13:57:46;95745.50;;;33.61;24.58
37690;BME280;23527;48.150;11.610;2022-08-01T14:00:46;95751.97;;;33.51;23.88
37690;BME280;23527;48.150;11.610;2022-08-01T14:03:47;95750.66;;;33.40;22.74
37690;BME280;23527;48.150;11.610;2022-08-01T14:06:47;95750.00;;;33.35;24.04
37690;BME280;23527;48.150;11.610;2022-08-01T14:09:47;95745.84;;;33.29;24.52
37690;BME280;23527;48.150;11.610;2022-08-01T14:12:48;95745.47;;;33.21;22.97
37690;BME280;23527;48.150;11.610;2022-08-01T14:15:48;95743.06;;;33.20;23.31
37690;BME280;23527;48.150;11.610;2022-08-01T14:18:50;95758.78;;;33.18;23.16
37690;BME280;23527;48.150;11.610;2022-08-01T14:21:50;95764.94;;;33.10;23.07
37690;BME280;23527;48.150;11.610;2022-08-01T14:24:52;95771.13;;;33.10;23.95
37690;BME280;23527;48.150;11.610;2022-08-01T14:27:52;95778.63;;;32.91;24.12
37690;BME280;23527;48.150;11.610;2022-08-01T14:30:53;95783.66;;;32.84;23.15
37690;BME280;23527;48.150;11.610;2022-08-01T14:33:55;95771.56;;;32.81;24.21
37690;BME280;23527;48.150;11.610;2022-08-01T14:36:55;95770.78;;;32.81;24.18
37690;BME280;23527;48.150;11.610;2022-08-01T14:39:56;95769.97;;;32.80;25.31
37690;BME280;23527;48.150;11.610;2022-08-01T14:42:56;95773.78;;;32.79;26.36
37690;BME280;23527;48.150;11.610;2022-08-01T14:45:57;95770.47;;;32.82;25.60
37690;BME280;23527;48.150;11.610;2022-08-01T14:48:57;95766.06;;;32.86;26.56
37690;BME280;23527;48.150;11.610;2022-08-01T14:51:57;95765.75;;;32.88;25.78
37690;BME280;23527;48.150;11.610;2022-08-01T14:54:57;95771.16;;;32.88;26.55
37690;BME280;23527;48.150;11.610;2022-08-01T14:57:58;95768.28;;;32.84;25.84
37690;BME280;23527;48.150;11.610;2022-08-01T15:00:58;95774.28;;;32.81;26.25
37690;BME280;23527;48.150;11.610;2022-08-01T15:03:58;95762.69;;;32.81;27.18
37690;BME280;23527;48.150;11.610;2022-08-01T15:06:59;95775.69;;;32.79;27.17
37690;BME280;23527;48.150;11.610;2022-08-01T15:09:59;95770.13;;;32.75;27.09
37690;BME280;23527;48.150;11.610;2022-08-01T15:12:59;95774.22;;;32.73;27.75
37690;BME280;23527;48.150;11.610;2022-08-01T15:16:01;95782.31;;;32.73;27.99
37690;BME280;23527;48.150;11.610;2022-08-01T15:19:01;95782.41;;;32.68;27.01
37690;BME280;23527;48.150;11.610;2022-08-01T15:22:02;95778.84;;;32.58;27.69
37690;BME280;23527;48.150;11.610;2022-08-01T15:25:02;95779.56;;;32.50;26.94
37690;BME280;23527;48.150;11.610;2022-08-01T15:28:03;95784.69;;;32.38;27.76
37690;BME280;23527;48.150;11.610;2022-08-01T15:31:03;95782.41;;;32.32;28.66
37690;BME280;23527;48.150;11.610;2022-08-01T15:34:03;95781.91;;;32.16;29.13
37690;BME280;23527;48.150;11.610;2022-08-01T15:37:03;95780.03;;;32.03;30.25
37690;BME280;23527;48.150;11.610;2022-08-01T15:40:04;95786.84;;;31.86;31.37
37690;BME280;23527;48.150;11.610;2022-08-01T15:43:04;95782.25;;;31.73;31.03
37690;BME280;23527;48.150;11.610;2022-08-01T15:46:05;95790.81;;;31.62;31.62
37690;BME280;23527;48.150;11.610;2022-08-01T15:49:06;95802.00;;;31.55;32.09
37690;BME280;23527;48.150;11.610;2022-08-01T15:52:06;95798.56;;;31.49;33.26
37690;BME280;23527;48.150;11.610;2022-08-01T15:55:07;95797.06;;;31.43;33.48
37690;BME280;23527;48.150;11.610;2022-08-01T15:58:08;95799.06;;;31.38;32.94
37690;BME280;23527;48.150;11.610;2022-08-01T16:01:08;95798.63;;;31.31;34.20
37690;BME280;23527;48.150;11.610;2022-08-01T16:04:08;95793.56;;;31.29;33.72
37690;BME280;23527;48.150;11.610;2022-08-01T16:07:09;95802.25;;;31.26;33.85
37690;BME280;23527;48.150;11.610;2022-08-01T16:10:10;95808.72;;;31.25;34.10
37690;BME280;23527;48.150;11.610;2022-08-01T16:13:10;95805.00;;;31.21;33.64
37690;BME280;23527;48.150;11.610;2022-08-01T16:16:11;95801.00;;;31.18;34.15
37690;BME280;23527;48.150;11.610;2022-08-01T16:19:11;95814.56;;;31.13;33.55
37690;BME280;23527;48.150;11.610;2022-08-01T16:22:11;95819.50;;;31.06;32.87
37690;BME280;23527;48.150;11.610;2022-08-01T16:25:12;95819.88;;;31.00;32.23